الصفحة الرئيسية
METAR-TAF:

METAR-TAF

مطار :

مطار يميلانو الدولي

كراسنويارسك, روسيا

دائرة عرض: 56-10-18N, خط طول: 092-29-36E, ارتفاع: 287 متر

مراقبة الطقس الحالي

تاريخ ووقت الإصدار 38 دقيقة قبل الساعة 15:00UTC
ريح 14 عقدة من الغرب
درجة الحرارة -16°درجة مئوية
الرطوبة 78%
ضغط 1035 hPa
الرؤية 10 كم أو أكثر
الغيوم لا تقل 1500 م ولا وجود لمزنة ركامية السحاب الأسود

METAR: UNKL 161500Z 28007MPS CAVOK M16/M19 Q1035 WS R29 R29/810255 NOSIG RMK QFE750

زمن: 22:38 (15:38 UTC)

توقعات

تاريخ ووقت الإصدار 1ساعة و 44 دقيقة قبل الساعة 13:54UTC
التوقعات صالحة من16 الساعة 15 UTC إلى 17 الساعة 15 UTC
ريح 10 عقدة من الغرب/الشمال الغربي تتزايد حتى 23 عقدة
الرؤية: 5000 متر
غيوم متفرقة على ارتفاع 2000 قدم, مزنة ركامية.
زخات ثلجية خفيفة
من 17 الساعة 0000 UTC
ريح 6 عقدة من الغرب/الجنوب الغربي تتزايد حتى 19 عقدة
الرؤية 10 كم أو أكثر
غيوم متفرقة على ارتفاع 4000 قدم

TAF: UNKL 161354Z 1615/1715 29005G12MPS 5000 -SHSN SCT020CB FM170000 24003G10MPS 9999 SCT040

أرصاد الطقس والتوقعات من أكثر من 4000 مطار (تقارير الطقس للمطار METAR والتنبؤ بالطقس بالمطارTAF).

المحطات المتاحة هي النقط الصفراء والحمراء على الخريطة.

حرك المؤشر فوق النقطة لمعرفة اسم المحطة.

ثم انقر لمعرفة أرصاد وتوقعات الطقس.

لتغيير الخارطة: اضغط على الأزرار الخضراء مع رمز الصليب الأسود للتكبير. على الزر الأخضر مع شرطة للتصغير، أو على الأسهم الخضراء للخرائط المجاورة.


METAR-TAF: